MMPA 090040Z 09010KT 5SM SKC 25/20 A2992 RMK HZY ISOL CU= 090040

MMPA 082340Z 09008KT 5SM SKC 26/20 A2990 RMK SLP135 54000 958 HZY ISOL CU= 082340

MMPA 082243Z 00000KT 5SM FEW020 28/22 A2988 RMK 8/100 HZY= 082243

MMPA 082142Z 00000KT 5SM FEW020 30/21 A2988 RMK 8/100 HZY= 082143

MMPA 082043Z 00000KT 5SM FEW020 31/21 A2990 RMK SLP114 57040 959 8/100 HZY= 082043

MMPA 081944Z 00000KT 4SM FEW020 29/22 A2991 RMK 8/100 HZY DSTN CB S= 081944

MMPA 081842Z 00000KT 4SM SCT020CB OVC090 28/22 A2995 RMK 8/96/ HZY CB SW= 081843

MMPA 081744Z 00000KT 4SM BKN020CB OVC090 27/20 A2998 RMK SLP162 58015 900 8/96/ HZY CB N MOV STN= 081746

MMPA 081643Z 00000KT 4SM FEW020 BKN090 27/21 A3002 RMK 8/130 HZY= 081643

MMPA 081542Z 00000KT 4SM BKN090 25/21 A3002 RMK 8/030 HZY= 081542

MMPA 081445Z 00000KT 4SM OVC020 23/21 A3003 RMK SLP168 52020 901 8/8// HZY RTS= 081446

MMPA 081400Z 27008KT 2SM BR OVC020 23/22 A3000 RMK 8/5//= 081343

MMPA 080140Z 00000KT 5SM SKC 24/20 A2993 RMK HZY= 080141

MMPA 080040Z 10006KT 5SM SKC 24/18 A2993 RMK HZY= 080041

MMPA 072345Z 09005KT 5SM SKC 27/18 A2993 RMK SLP143 54000 930 HZY= 072346

MMPA 072240Z 00000KT 5SM SKC 27/20 A2992 RMK HZY= 072242

MMPA 072142Z 07005KT 5SM FEW020 28/22 A2993 RMK 8/100 HZY= 072142

MMPA 072043Z 06006KT 5SM SCT020 29/19 A2994 RMK SLP125 57050 915 8/100 HZY= 072044

MMPA 071949Z 00000KT 4SM BKN020 BKN280 28/20 A2999 RMK 8/108 HZY PRESFR= 071950

MMPA 071843Z 00000KT 4SM BKN020 BKN280 28/22 A3004 RMK 8/108 HZY PRESFR= 071845

MMPA 071742Z 00000KT 4SM BKN012 OVC018 26/22 A3007 RMK SLP167 57005 924 8/8// HZY BINOVC= 071743

MMPA 071644Z 00000KT 2SM BR HZ BKN008 OVC012 24/21 A3008 RMK 8/8// VRB COND= 071645

SPECI MMPA 071615Z 34005KT 1SM BR HZ BKN010 BKN280 22/20 A3007 RMK 8/108 VRB COND= 071617

MMPA 071540Z 34004KT 3/4SM BR HZ BKN010 OVC280 21/20 A3008 RMK 8/607 VRB COND= 071542

MMPA 071443Z 00000KT 1/2SM FG BKN008 OVC280 22/22 A3007 RMK SLP167 5//// 924 8/607 VRB COND= 071447

MMPA 071340Z 00000KT 1/16SM FG BKN008 BKN280 21/21 A3004 RMK 8/608 VRB COND= 071341

SPECI MMPA 071334Z 00000KT 1/16SM FG BKN010 BKN280 21/21 A3004 RMK 8/608 VRB COND= 071336

MMPA 071250Z 00000KT 0SM FG VV005 21/21 A3003 RMK 8//// VRB COND RTS= 071251

MMPA 070253Z 06010KT 5SM SKC 23/21 A2993 RMK SLP124 52010 905 HZY MSGTX MMMX= 070253

MMPA 070156Z 06006KT 5SM SKC 24/21 A2993 RMK HZY MSGTX MMMX= 070156

MMPA 070051Z 06010KT 5SM SKC 25/21 A2992 RMK HZY= 070052

MMPA 062352Z 06006KT 5SM SKC 28/24 A2991 RMK SLP113 52003 905 HZY= 062355

MMPA 062241Z 00000KT 6SM SKC 31/23 A2988 RMK HZY= 062242

MMPA 062143Z 16005KT 5SM SKC 32/23 A2989 RMK HZY= 062144

MMPA 062044Z 18005KT 5SM SKC 32/23 A2989 RMK SLP110 52025 925 HZY ISOL CI= 062048

MMPA 061940Z 00000KT 4SM BKN280 31/19 A2992 RMK 8/008 HZY= 061941

MMPA 061845Z 00000KT 4SM BKN280 30/19 A2995 RMK 8/008 HZY= 061848

MMPA 061746Z 00000KT 4SM BKN280 29/20 A2997 RMK SLP137 57006 954 8/008 HZY= 061747

MMPA 061646Z 00000KT 4SM BKN280 27/21 A3001 RMK 8/008 HZY= 061648

MMPA 061542Z 00000KT 4SM BKN280 25/21 A3001 RMK 8/008 HZY= 061544

MMPA 061443Z 00000KT 4SM BKN280 24/21 A2999 RMK SLP143 5//// 963 8/008 HZY= 061445

SPECI MMPA 061412Z 00000KT 2SM BR HZ SCT010 BKN280 22/20 A2998 RMK 8/108 VRB COND= 061413

MMPA 061344Z 00000KT 1/2SM FG BKN008 BKN280 21/21 A2997 RMK 8/608 VRB COND= 061345

MMPA 061306Z RTD 00000KT 1/16SM FG OVC008 21/21 A2996 RMK 8/6// VRB CONS RTS= 061307

MMPA 060241Z 00000KT 6SM SKC 22/20 A2993 RMK SLP121 52010 991 HZY= 060242

MMPA 041446Z 00000KT 6SM SKC 23/20 A3009 RMK SLP178 5//// 960 HZY MSGTX MMMX= 041446

MMPA 041349Z 00000KT 4SM SKC 22/21 A3007 RMK HZY MSGTX MMMX= 041349

MMPA 041250Z 00000KT 3SM BR HZ SKC 20/20 A3006 RMK MSG TX MMMX= 041250

MMPA 030244Z 09006KT 7SM SKC 22/18 A3011 RMK SLP183 52015 966 MSGTX MMMX = 030244

MMPA 030143Z 08006KT 7SM SKC 22/18 A3033 RMK HZY MSGTX MMMX = 030143